sensor_id;sensor_type;location;lat;lon;timestamp;pressure;altitude;pressure_sealevel;temperature;humidity
10006;BME280;5042;42.626;23.382;2024-03-29T00:00:25;152198.13;;;12.30;78.66
10006;BME280;5042;42.626;23.382;2024-03-29T00:02:51;152196.84;;;12.29;79.81
10006;BME280;5042;42.626;23.382;2024-03-29T00:05:16;152179.94;;;12.23;80.32
10006;BME280;5042;42.626;23.382;2024-03-29T00:07:42;152161.78;;;12.16;80.17
10006;BME280;5042;42.626;23.382;2024-03-29T00:10:09;152154.00;;;12.13;80.54
10006;BME280;5042;42.626;23.382;2024-03-29T00:12:34;152143.59;;;12.08;83.15
10006;BME280;5042;42.626;23.382;2024-03-29T00:15:00;152170.84;;;12.19;79.95
10006;BME280;5042;42.626;23.382;2024-03-29T00:17:28;152191.63;;;12.27;78.03
10006;BME280;5042;42.626;23.382;2024-03-29T00:19:53;152165.69;;;12.17;80.59
10006;BME280;5042;42.626;23.382;2024-03-29T00:22:19;152170.84;;;12.19;82.31
10006;BME280;5042;42.626;23.382;2024-03-29T00:24:45;152164.34;;;12.17;82.44
10006;BME280;5042;42.626;23.382;2024-03-29T00:27:11;152137.09;;;12.06;82.24
10006;BME280;5042;42.626;23.382;2024-03-29T00:29:37;152143.59;;;12.08;83.33
10006;BME280;5042;42.626;23.382;2024-03-29T00:32:03;152131.91;;;12.04;82.37
10006;BME280;5042;42.626;23.382;2024-03-29T00:34:30;152121.50;;;12.00;83.64
10006;BME280;5042;42.626;23.382;2024-03-29T00:36:56;152105.97;;;11.94;84.27
10006;BME280;5042;42.626;23.382;2024-03-29T00:39:22;152085.09;;;11.85;84.78
10006;BME280;5042;42.626;23.382;2024-03-29T00:41:48;152068.22;;;11.79;85.44
10006;BME280;5042;42.626;23.382;2024-03-29T00:44:14;152031.88;;;11.64;86.45
10006;BME280;5042;42.626;23.382;2024-03-29T00:46:40;152069.56;;;11.79;84.81
10006;BME280;5042;42.626;23.382;2024-03-29T00:49:06;152068.22;;;11.79;88.42
10006;BME280;5042;42.626;23.382;2024-03-29T00:51:33;152047.47;;;11.71;86.86
10006;BME280;5042;42.626;23.382;2024-03-29T00:53:59;152051.38;;;11.72;87.90
10006;BME280;5042;42.626;23.382;2024-03-29T00:56:25;152029.31;;;11.63;89.75
10006;BME280;5042;42.626;23.382;2024-03-29T00:58:51;152004.66;;;11.54;87.54
10006;BME280;5042;42.626;23.382;2024-03-29T01:01:16;152011.13;;;11.56;88.75
10006;BME280;5042;42.626;23.382;2024-03-29T01:03:42;151989.06;;;11.48;88.35
10006;BME280;5042;42.626;23.382;2024-03-29T01:06:08;151999.44;;;11.52;88.66
10006;BME280;5042;42.626;23.382;2024-03-29T01:08:35;152033.16;;;11.65;87.68
10006;BME280;5042;42.626;23.382;2024-03-29T01:11:01;152025.41;;;11.62;88.92
10006;BME280;5042;42.626;23.382;2024-03-29T01:13:27;152020.19;;;11.60;89.71
10006;BME280;5042;42.626;23.382;2024-03-29T01:15:53;151972.19;;;11.41;92.21
10006;BME280;5042;42.626;23.382;2024-03-29T01:18:19;151990.34;;;11.48;89.01
10006;BME280;5042;42.626;23.382;2024-03-29T01:20:45;151983.84;;;11.45;89.80
10006;BME280;5042;42.626;23.382;2024-03-29T01:23:11;151963.13;;;11.37;89.49
10006;BME280;5042;42.626;23.382;2024-03-29T01:25:38;151998.16;;;11.51;88.89
10006;BME280;5042;42.626;23.382;2024-03-29T01:28:04;151890.44;;;11.09;90.53
10006;BME280;5042;42.626;23.382;2024-03-29T01:30:30;151995.53;;;11.50;90.57
10006;BME280;5042;42.626;23.382;2024-03-29T01:32:56;151965.69;;;11.38;89.25
10006;BME280;5042;42.626;23.382;2024-03-29T01:35:22;151972.19;;;11.41;91.31
10006;BME280;5042;42.626;23.382;2024-03-29T01:37:48;151973.50;;;11.41;88.18
10006;BME280;5042;42.626;23.382;2024-03-29T01:40:14;151972.19;;;11.41;88.97
10006;BME280;5042;42.626;23.382;2024-03-29T01:42:41;151981.28;;;11.44;88.23
10006;BME280;5042;42.626;23.382;2024-03-29T01:45:07;151992.97;;;11.49;87.58
10006;BME280;5042;42.626;23.382;2024-03-29T01:47:35;151890.44;;;11.09;85.69
10006;BME280;5042;42.626;23.382;2024-03-29T01:50:03;151990.34;;;11.48;86.28
10006;BME280;5042;42.626;23.382;2024-03-29T01:52:31;152015.00;;;11.58;86.92
10006;BME280;5042;42.626;23.382;2024-03-29T01:54:58;152021.53;;;11.60;88.17
10006;BME280;5042;42.626;23.382;2024-03-29T01:57:26;152009.84;;;11.56;88.24
10006;BME280;5042;42.626;23.382;2024-03-29T01:59:54;152012.41;;;11.57;87.97
10006;BME280;5042;42.626;23.382;2024-03-29T02:02:21;152028.00;;;11.63;86.31
10006;BME280;5042;42.626;23.382;2024-03-29T02:04:49;152015.00;;;11.58;86.10
10006;BME280;5042;42.626;23.382;2024-03-29T02:07:17;151996.81;;;11.51;85.91
10006;BME280;5042;42.626;23.382;2024-03-29T02:09:44;151989.06;;;11.48;87.99
10006;BME280;5042;42.626;23.382;2024-03-29T02:12:10;151968.31;;;11.39;91.32
10006;BME280;5042;42.626;23.382;2024-03-29T02:14:36;151957.91;;;11.35;89.92
10006;BME280;5042;42.626;23.382;2024-03-29T02:17:06;151974.78;;;11.42;90.55
10006;BME280;5042;42.626;23.382;2024-03-29T02:19:33;151983.84;;;11.45;90.27
10006;BME280;5042;42.626;23.382;2024-03-29T02:22:01;151983.84;;;11.45;91.58
10006;BME280;5042;42.626;23.382;2024-03-29T02:24:32;151998.16;;;11.51;89.39
10006;BME280;5042;42.626;23.382;2024-03-29T02:26:59;152002.03;;;11.53;88.23
10006;BME280;5042;42.626;23.382;2024-03-29T02:29:26;151991.69;;;11.49;88.18
10006;BME280;5042;42.626;23.382;2024-03-29T02:31:53;152012.41;;;11.57;87.13
10006;BME280;5042;42.626;23.382;2024-03-29T02:34:20;152009.84;;;11.56;88.62
10006;BME280;5042;42.626;23.382;2024-03-29T02:36:47;152009.84;;;11.56;88.98
10006;BME280;5042;42.626;23.382;2024-03-29T02:39:14;152011.13;;;11.56;88.99
10006;BME280;5042;42.626;23.382;2024-03-29T02:41:43;151996.81;;;11.51;88.53
10006;BME280;5042;42.626;23.382;2024-03-29T02:44:10;151983.84;;;11.45;89.63
10006;BME280;5042;42.626;23.382;2024-03-29T02:46:37;151951.44;;;11.33;91.87
10006;BME280;5042;42.626;23.382;2024-03-29T02:49:04;151931.97;;;11.25;91.22
10006;BME280;5042;42.626;23.382;2024-03-29T02:51:30;151906.00;;;11.15;94.04
10006;BME280;5042;42.626;23.382;2024-03-29T02:53:56;151906.00;;;11.15;93.12
10006;BME280;5042;42.626;23.382;2024-03-29T02:56:22;151881.34;;;11.05;93.87
10006;BME280;5042;42.626;23.382;2024-03-29T02:58:51;151886.53;;;11.07;94.03
10006;BME280;5042;42.626;23.382;2024-03-29T03:01:17;151874.88;;;11.02;93.92
10006;BME280;5042;42.626;23.382;2024-03-29T03:03:44;151858.00;;;10.96;94.23
10006;BME280;5042;42.626;23.382;2024-03-29T03:06:10;151859.34;;;10.96;94.34
10006;BME280;5042;42.626;23.382;2024-03-29T03:08:37;151880.06;;;11.04;96.33
10006;BME280;5042;42.626;23.382;2024-03-29T03:11:21;151880.06;;;11.04;94.36
10006;BME280;5042;42.626;23.382;2024-03-29T03:13:48;151860.63;;;10.97;95.86
10006;BME280;5042;42.626;23.382;2024-03-29T03:16:15;151851.50;;;10.93;95.26
10006;BME280;5042;42.626;23.382;2024-03-29T03:18:42;151848.94;;;10.92;95.32
10006;BME280;5042;42.626;23.382;2024-03-29T03:21:09;151850.22;;;10.93;94.75
10006;BME280;5042;42.626;23.382;2024-03-29T03:23:35;151848.94;;;10.92;94.33
10006;BME280;5042;42.626;23.382;2024-03-29T03:26:03;151847.66;;;10.92;94.62
10006;BME280;5042;42.626;23.382;2024-03-29T03:28:29;151821.69;;;10.81;94.81
10006;BME280;5042;42.626;23.382;2024-03-29T03:30:56;151826.88;;;10.83;95.78
10006;BME280;5042;42.626;23.382;2024-03-29T03:33:23;151793.16;;;10.70;95.23
10006;BME280;5042;42.626;23.382;2024-03-29T03:35:50;151837.25;;;10.88;95.10
10006;BME280;5042;42.626;23.382;2024-03-29T03:38:16;151786.66;;;10.68;95.02
10006;BME280;5042;42.626;23.382;2024-03-29T03:40:43;151843.75;;;10.90;94.45
10006;BME280;5042;42.626;23.382;2024-03-29T03:43:09;151835.97;;;10.87;94.90
10006;BME280;5042;42.626;23.382;2024-03-29T03:45:37;151823.00;;;10.82;94.42
10006;BME280;5042;42.626;23.382;2024-03-29T03:48:04;151846.31;;;10.91;93.86
10006;BME280;5042;42.626;23.382;2024-03-29T03:50:32;151837.25;;;10.88;94.02
10006;BME280;5042;42.626;23.382;2024-03-29T03:52:58;151847.66;;;10.92;94.04
10006;BME280;5042;42.626;23.382;2024-03-29T03:55:25;151859.34;;;10.96;92.81
10006;BME280;5042;42.626;23.382;2024-03-29T03:57:52;151895.66;;;11.11;93.07
10006;BME280;5042;42.626;23.382;2024-03-29T04:00:20;151881.34;;;11.05;91.62
10006;BME280;5042;42.626;23.382;2024-03-29T04:02:47;151909.91;;;11.16;90.71
10006;BME280;5042;42.626;23.382;2024-03-29T04:05:15;151925.50;;;11.22;89.82
10006;BME280;5042;42.626;23.382;2024-03-29T04:07:43;151921.59;;;11.21;90.09
10006;BME280;5042;42.626;23.382;2024-03-29T04:10:10;151830.78;;;10.85;89.65
10006;BME280;5042;42.626;23.382;2024-03-29T04:12:36;151928.06;;;11.23;90.24
10006;BME280;5042;42.626;23.382;2024-03-29T04:15:03;151969.59;;;11.40;93.02
10006;BME280;5042;42.626;23.382;2024-03-29T04:17:29;151946.22;;;11.31;93.43
10006;BME280;5042;42.626;23.382;2024-03-29T04:19:57;151882.63;;;11.06;93.12
10006;BME280;5042;42.626;23.382;2024-03-29T04:22:22;151977.38;;;11.43;90.53
10006;BME280;5042;42.626;23.382;2024-03-29T04:24:51;151929.34;;;11.24;90.80
10006;BME280;5042;42.626;23.382;2024-03-29T04:27:17;151944.94;;;11.30;93.37
10006;BME280;5042;42.626;23.382;2024-03-29T04:29:45;151916.41;;;11.19;94.12
10006;BME280;5042;42.626;23.382;2024-03-29T04:32:11;151883.97;;;11.06;97.00
10006;BME280;5042;42.626;23.382;2024-03-29T04:34:38;151872.28;;;11.01;95.29
10006;BME280;5042;42.626;23.382;2024-03-29T04:37:05;151877.50;;;11.03;95.09
10006;BME280;5042;42.626;23.382;2024-03-29T04:39:32;151855.41;;;10.95;95.13
10006;BME280;5042;42.626;23.382;2024-03-29T04:42:00;151863.19;;;10.98;94.89
10006;BME280;5042;42.626;23.382;2024-03-29T04:44:27;151865.81;;;10.99;97.29
10006;BME280;5042;42.626;23.382;2024-03-29T04:46:54;151876.16;;;11.03;96.49
10006;BME280;5042;42.626;23.382;2024-03-29T04:49:23;151909.91;;;11.16;95.96
10006;BME280;5042;42.626;23.382;2024-03-29T04:51:56;151925.50;;;11.22;94.81
10006;BME280;5042;42.626;23.382;2024-03-29T04:54:22;151930.66;;;11.24;94.48
10006;BME280;5042;42.626;23.382;2024-03-29T04:56:49;151957.91;;;11.35;92.88
10006;BME280;5042;42.626;23.382;2024-03-29T04:59:18;151926.78;;;11.23;95.68
10006;BME280;5042;42.626;23.382;2024-03-29T05:01:46;151912.47;;;11.17;97.94
10006;BME280;5042;42.626;23.382;2024-03-29T05:04:15;151908.63;;;11.16;98.82
10006;BME280;5042;42.626;23.382;2024-03-29T05:06:44;151922.88;;;11.21;98.94
10006;BME280;5042;42.626;23.382;2024-03-29T05:09:11;151930.66;;;11.24;97.61
10006;BME280;5042;42.626;23.382;2024-03-29T05:11:38;151915.09;;;11.18;99.54
10006;BME280;5042;42.626;23.382;2024-03-29T05:14:05;151909.91;;;11.16;100.00
10006;BME280;5042;42.626;23.382;2024-03-29T05:16:33;151938.47;;;11.28;100.00
10006;BME280;5042;42.626;23.382;2024-03-29T05:19:00;151956.63;;;11.35;99.96
10006;BME280;5042;42.626;23.382;2024-03-29T05:21:27;151947.53;;;11.31;99.57
10006;BME280;5042;42.626;23.382;2024-03-29T05:23:54;151951.44;;;11.33;99.49
10006;BME280;5042;42.626;23.382;2024-03-29T05:26:21;151947.53;;;11.31;100.00
10006;BME280;5042;42.626;23.382;2024-03-29T05:28:48;151943.66;;;11.30;99.37
10006;BME280;5042;42.626;23.382;2024-03-29T05:31:14;151981.28;;;11.44;97.95
10006;BME280;5042;42.626;23.382;2024-03-29T05:33:43;151921.59;;;11.21;100.00
10006;BME280;5042;42.626;23.382;2024-03-29T05:36:10;151990.34;;;11.48;100.00
10006;BME280;5042;42.626;23.382;2024-03-29T05:38:38;152020.19;;;11.60;100.00
10006;BME280;5042;42.626;23.382;2024-03-29T05:41:05;152082.53;;;11.84;100.00
10006;BME280;5042;42.626;23.382;2024-03-29T05:43:33;152272.13;;;12.59;98.43
10006;BME280;5042;42.626;23.382;2024-03-29T05:46:00;152542.47;;;13.66;91.63
10006;BME280;5042;42.626;23.382;2024-03-29T05:48:27;152897.56;;;15.05;85.92
10006;BME280;5042;42.626;23.382;2024-03-29T05:50:55;153282.97;;;16.57;69.94
10006;BME280;5042;42.626;23.382;2024-03-29T05:53:22;153537.09;;;17.57;60.33
10006;BME280;5042;42.626;23.382;2024-03-29T05:55:49;153818.81;;;18.68;55.79
10006;BME280;5042;42.626;23.382;2024-03-29T05:58:16;154055.03;;;19.60;52.37
10006;BME280;5042;42.626;23.382;2024-03-29T06:00:44;154070.69;;;19.66;48.18
10006;BME280;5042;42.626;23.382;2024-03-29T06:03:11;154469.09;;;21.23;46.60
10006;BME280;5042;42.626;23.382;2024-03-29T06:05:39;154593.31;;;21.71;43.46
10006;BME280;5042;42.626;23.382;2024-03-29T06:08:08;154628.56;;;21.85;40.67
10006;BME280;5042;42.626;23.382;2024-03-29T06:10:35;154790.75;;;22.49;40.47
10006;BME280;5042;42.626;23.382;2024-03-29T06:13:02;154908.50;;;22.95;39.92
10006;BME280;5042;42.626;23.382;2024-03-29T06:15:35;155131.00;;;23.82;39.93
10006;BME280;5042;42.626;23.382;2024-03-29T06:18:31;155049.81;;;23.50;37.36
10006;BME280;5042;42.626;23.382;2024-03-29T06:20:58;154973.91;;;23.20;37.16
10006;BME280;5042;42.626;23.382;2024-03-29T06:23:26;155031.50;;;23.43;36.64
10006;BME280;5042;42.626;23.382;2024-03-29T06:25:53;155052.41;;;23.51;36.88
10006;BME280;5042;42.626;23.382;2024-03-29T06:28:20;155022.31;;;23.39;37.56
10006;BME280;5042;42.626;23.382;2024-03-29T06:30:47;155049.81;;;23.50;36.37
10006;BME280;5042;42.626;23.382;2024-03-29T06:33:14;155055.06;;;23.52;36.28
10006;BME280;5042;42.626;23.382;2024-03-29T06:35:41;155010.53;;;23.35;37.57
10006;BME280;5042;42.626;23.382;2024-03-29T06:38:07;155017.13;;;23.37;38.17
10006;BME280;5042;42.626;23.382;2024-03-29T06:40:36;155220.00;;;24.17;37.82
10006;BME280;5042;42.626;23.382;2024-03-29T06:43:03;155278.94;;;24.40;35.15
10006;BME280;5042;42.626;23.382;2024-03-29T06:45:30;155210.81;;;24.13;34.01
10006;BME280;5042;42.626;23.382;2024-03-29T06:47:57;155192.50;;;24.06;34.72
10006;BME280;5042;42.626;23.382;2024-03-29T06:50:24;155138.88;;;23.85;36.30
10006;BME280;5042;42.626;23.382;2024-03-29T06:52:50;155120.56;;;23.78;34.86
10006;BME280;5042;42.626;23.382;2024-03-29T06:55:17;155208.22;;;24.12;35.38
10006;BME280;5042;42.626;23.382;2024-03-29T06:57:46;155103.47;;;23.71;35.67
10006;BME280;5042;42.626;23.382;2024-03-29T07:00:13;155182.06;;;24.02;36.44
10006;BME280;5042;42.626;23.382;2024-03-29T07:02:40;155222.59;;;24.18;34.25
10006;BME280;5042;42.626;23.382;2024-03-29T07:05:08;155204.28;;;24.10;35.93
10006;BME280;5042;42.626;23.382;2024-03-29T07:07:36;155150.66;;;23.89;33.73
10006;BME280;5042;42.626;23.382;2024-03-29T07:10:06;155144.06;;;23.87;34.11
10006;BME280;5042;42.626;23.382;2024-03-29T07:12:33;155150.66;;;23.89;35.04
10006;BME280;5042;42.626;23.382;2024-03-29T07:15:01;155180.72;;;24.01;36.57
10006;BME280;5042;42.626;23.382;2024-03-29T07:17:28;155240.94;;;24.25;37.10
10006;BME280;5042;42.626;23.382;2024-03-29T07:19:55;155373.22;;;24.76;34.87
10006;BME280;5042;42.626;23.382;2024-03-29T07:22:22;155330.03;;;24.60;34.12
10006;BME280;5042;42.626;23.382;2024-03-29T07:24:49;155261.91;;;24.33;34.12
10006;BME280;5042;42.626;23.382;2024-03-29T07:27:16;155354.91;;;24.69;34.40
10006;BME280;5042;42.626;23.382;2024-03-29T07:29:45;155426.94;;;24.97;32.38
10006;BME280;5042;42.626;23.382;2024-03-29T07:32:13;155500.31;;;25.26;32.24
10006;BME280;5042;42.626;23.382;2024-03-29T07:34:41;155539.66;;;25.42;31.46
10006;BME280;5042;42.626;23.382;2024-03-29T07:37:08;155497.72;;;25.25;31.06
10006;BME280;5042;42.626;23.382;2024-03-29T07:39:40;155519.97;;;25.34;32.79
10006;BME280;5042;42.626;23.382;2024-03-29T07:42:07;155534.41;;;25.39;31.86
10006;BME280;5042;42.626;23.382;2024-03-29T07:44:34;155568.44;;;25.53;32.61
10006;BME280;5042;42.626;23.382;2024-03-29T07:47:01;155635.25;;;25.79;31.67
10006;BME280;5042;42.626;23.382;2024-03-29T07:49:30;155644.44;;;25.83;32.17
10006;BME280;5042;42.626;23.382;2024-03-29T07:51:57;155639.19;;;25.80;32.57
10006;BME280;5042;42.626;23.382;2024-03-29T07:54:25;155480.69;;;25.18;31.12
10006;BME280;5042;42.626;23.382;2024-03-29T07:56:52;155426.94;;;24.97;31.84
10006;BME280;5042;42.626;23.382;2024-03-29T07:59:18;155480.69;;;25.18;34.56
10006;BME280;5042;42.626;23.382;2024-03-29T08:01:45;155534.41;;;25.39;35.13
10006;BME280;5042;42.626;23.382;2024-03-29T08:04:12;155674.66;;;25.94;32.36
10006;BME280;5042;42.626;23.382;2024-03-29T08:06:40;155653.66;;;25.86;31.46
10006;BME280;5042;42.626;23.382;2024-03-29T08:09:07;155662.84;;;25.90;32.12
10006;BME280;5042;42.626;23.382;2024-03-29T08:11:35;155558.00;;;25.49;32.25
10006;BME280;5042;42.626;23.382;2024-03-29T08:14:02;155413.84;;;24.92;32.98
10006;BME280;5042;42.626;23.382;2024-03-29T08:16:29;155400.75;;;24.87;35.26
10006;BME280;5042;42.626;23.382;2024-03-29T08:18:55;155454.47;;;25.08;34.73
10006;BME280;5042;42.626;23.382;2024-03-29T08:21:23;155533.09;;;25.39;33.35
10006;BME280;5042;42.626;23.382;2024-03-29T08:23:54;155526.50;;;25.36;32.15
10006;BME280;5042;42.626;23.382;2024-03-29T08:26:22;155537.00;;;25.41;33.43
10006;BME280;5042;42.626;23.382;2024-03-29T08:28:49;155471.44;;;25.15;32.34
10006;BME280;5042;42.626;23.382;2024-03-29T08:31:16;155388.97;;;24.83;32.88
10006;BME280;5042;42.626;23.382;2024-03-29T08:33:42;155413.84;;;24.92;35.70
10006;BME280;5042;42.626;23.382;2024-03-29T08:36:09;155428.22;;;24.98;35.89
10006;BME280;5042;42.626;23.382;2024-03-29T08:38:37;155580.22;;;25.57;33.00
10006;BME280;5042;42.626;23.382;2024-03-29T08:41:09;155796.53;;;26.42;36.45
10006;BME280;5042;42.626;23.382;2024-03-29T08:43:36;155957.81;;;27.05;32.92
10006;BME280;5042;42.626;23.382;2024-03-29T08:46:03;155927.66;;;26.93;31.46
10006;BME280;5042;42.626;23.382;2024-03-29T08:48:30;155906.69;;;26.85;29.82
10006;BME280;5042;42.626;23.382;2024-03-29T08:50:57;155810.94;;;26.48;30.38
10006;BME280;5042;42.626;23.382;2024-03-29T08:53:24;155746.72;;;26.22;29.73
10006;BME280;5042;42.626;23.382;2024-03-29T08:55:52;155780.78;;;26.36;31.68
10006;BME280;5042;42.626;23.382;2024-03-29T08:58:21;155838.53;;;26.58;30.78
10006;BME280;5042;42.626;23.382;2024-03-29T09:00:53;155799.13;;;26.43;29.60
10006;BME280;5042;42.626;23.382;2024-03-29T09:03:21;155733.63;;;26.17;30.56
10006;BME280;5042;42.626;23.382;2024-03-29T09:05:48;155809.63;;;26.47;29.78
10006;BME280;5042;42.626;23.382;2024-03-29T09:08:14;155793.88;;;26.41;35.12
10006;BME280;5042;42.626;23.382;2024-03-29T09:10:42;155879.19;;;26.74;30.79
10006;BME280;5042;42.626;23.382;2024-03-29T09:13:08;155786.03;;;26.38;34.54
10006;BME280;5042;42.626;23.382;2024-03-29T09:15:37;155799.13;;;26.43;31.56
10006;BME280;5042;42.626;23.382;2024-03-29T09:18:05;155716.59;;;26.11;33.52
10006;BME280;5042;42.626;23.382;2024-03-29T09:20:42;155721.84;;;26.13;29.84
10006;BME280;5042;42.626;23.382;2024-03-29T09:23:09;155641.81;;;25.81;32.23
10006;BME280;5042;42.626;23.382;2024-03-29T09:25:39;155530.44;;;25.38;30.23
10006;BME280;5042;42.626;23.382;2024-03-29T09:28:06;155285.47;;;24.42;30.20
10006;BME280;5042;42.626;23.382;2024-03-29T09:30:36;155309.09;;;24.51;34.66
10006;BME280;5042;42.626;23.382;2024-03-29T09:33:04;155467.53;;;25.13;31.29
10006;BME280;5042;42.626;23.382;2024-03-29T09:35:34;155345.75;;;24.66;29.71
10006;BME280;5042;42.626;23.382;2024-03-29T09:38:01;155070.72;;;23.58;32.94
10006;BME280;5042;42.626;23.382;2024-03-29T09:40:29;154973.91;;;23.20;31.18
10006;BME280;5042;42.626;23.382;2024-03-29T09:42:59;154962.13;;;23.16;33.88
10006;BME280;5042;42.626;23.382;2024-03-29T09:45:28;155036.75;;;23.45;31.78
10006;BME280;5042;42.626;23.382;2024-03-29T09:48:00;155170.28;;;23.97;33.82
10006;BME280;5042;42.626;23.382;2024-03-29T09:50:28;155210.81;;;24.13;32.35
10006;BME280;5042;42.626;23.382;2024-03-29T09:52:56;155127.09;;;23.80;33.75
10006;BME280;5042;42.626;23.382;2024-03-29T09:55:23;155165.03;;;23.95;35.70
10006;BME280;5042;42.626;23.382;2024-03-29T09:57:50;155333.97;;;24.61;33.64
10006;BME280;5042;42.626;23.382;2024-03-29T10:00:18;155282.81;;;24.41;33.86
10006;BME280;5042;42.626;23.382;2024-03-29T10:02:45;155175.50;;;23.99;33.82
10006;BME280;5042;42.626;23.382;2024-03-29T10:05:14;155199.09;;;24.08;33.11
10006;BME280;5042;42.626;23.382;2024-03-29T10:07:42;155351.00;;;24.68;36.69
10006;BME280;5042;42.626;23.382;2024-03-29T10:10:10;155429.53;;;24.98;31.34
10006;BME280;5042;42.626;23.382;2024-03-29T10:12:37;155348.34;;;24.67;31.70
10006;BME280;5042;42.626;23.382;2024-03-29T10:15:05;155348.34;;;24.67;32.63
10006;BME280;5042;42.626;23.382;2024-03-29T10:17:36;155430.88;;;24.99;32.95
10006;BME280;5042;42.626;23.382;2024-03-29T10:20:04;155340.50;;;24.64;32.46
10006;BME280;5042;42.626;23.382;2024-03-29T10:22:40;155311.69;;;24.52;35.24
10006;BME280;5042;42.626;23.382;2024-03-29T10:25:08;155324.78;;;24.58;31.83
10006;BME280;5042;42.626;23.382;2024-03-29T10:27:34;155200.38;;;24.09;34.01
10006;BME280;5042;42.626;23.382;2024-03-29T10:30:01;155107.38;;;23.73;33.61
10006;BME280;5042;42.626;23.382;2024-03-29T10:32:29;155117.91;;;23.77;32.01
10006;BME280;5042;42.626;23.382;2024-03-29T10:34:56;155053.75;;;23.52;32.68
10006;BME280;5042;42.626;23.382;2024-03-29T10:37:24;155119.19;;;23.77;34.24
10006;BME280;5042;42.626;23.382;2024-03-29T10:39:56;155225.25;;;24.19;33.87
10006;BME280;5042;42.626;23.382;2024-03-29T10:42:23;155153.25;;;23.90;31.19
10006;BME280;5042;42.626;23.382;2024-03-29T10:44:54;155146.72;;;23.88;37.33
10006;BME280;5042;42.626;23.382;2024-03-29T10:47:23;155239.63;;;24.24;36.22
10006;BME280;5042;42.626;23.382;2024-03-29T10:49:51;155298.59;;;24.47;34.23
10006;BME280;5042;42.626;23.382;2024-03-29T10:52:21;155383.72;;;24.81;35.66
10006;BME280;5042;42.626;23.382;2024-03-29T10:54:48;155371.94;;;24.76;32.21
10006;BME280;5042;42.626;23.382;2024-03-29T10:57:22;155265.84;;;24.34;32.08
10006;BME280;5042;42.626;23.382;2024-03-29T10:59:54;155165.03;;;23.95;33.68
10006;BME280;5042;42.626;23.382;2024-03-29T11:02:34;155230.50;;;24.21;37.89
10006;BME280;5042;42.626;23.382;2024-03-29T11:05:06;155288.06;;;24.43;34.34
10006;BME280;5042;42.626;23.382;2024-03-29T11:07:38;155332.66;;;24.61;33.30
10006;BME280;5042;42.626;23.382;2024-03-29T11:10:06;155299.91;;;24.48;32.87
10006;BME280;5042;42.626;23.382;2024-03-29T11:12:39;155301.22;;;24.48;33.23
10006;BME280;5042;42.626;23.382;2024-03-29T11:15:15;155272.38;;;24.37;34.71
10006;BME280;5042;42.626;23.382;2024-03-29T11:17:44;155311.69;;;24.52;31.69
10006;BME280;5042;42.626;23.382;2024-03-29T11:20:12;155361.44;;;24.72;31.98
10006;BME280;5042;42.626;23.382;2024-03-29T11:22:43;155440.00;;;25.03;31.70
10006;BME280;5042;42.626;23.382;2024-03-29T11:25:12;155497.72;;;25.25;31.16
10006;BME280;5042;42.626;23.382;2024-03-29T11:27:40;155492.47;;;25.23;32.43
10006;BME280;5042;42.626;23.382;2024-03-29T11:30:07;155424.34;;;24.96;30.30
10006;BME280;5042;42.626;23.382;2024-03-29T11:32:34;155209.53;;;24.12;33.70
10006;BME280;5042;42.626;23.382;2024-03-29T11:35:04;155151.94;;;23.90;33.21
10006;BME280;5042;42.626;23.382;2024-03-29T11:37:32;155089.06;;;23.65;34.09
10006;BME280;5042;42.626;23.382;2024-03-29T11:39:59;155070.72;;;23.58;32.79
10006;BME280;5042;42.626;23.382;2024-03-29T11:42:37;155131.00;;;23.82;37.06
10006;BME280;5042;42.626;23.382;2024-03-29T11:45:07;154939.94;;;23.07;35.04
10006;BME280;5042;42.626;23.382;2024-03-29T11:47:36;154848.31;;;22.71;34.69
10006;BME280;5042;42.626;23.382;2024-03-29T11:50:06;154920.31;;;22.99;36.73
10006;BME280;5042;42.626;23.382;2024-03-29T11:52:33;155068.13;;;23.57;36.61
10006;BME280;5042;42.626;23.382;2024-03-29T11:55:00;155027.56;;;23.41;34.33
10006;BME280;5042;42.626;23.382;2024-03-29T11:57:27;155031.50;;;23.43;34.06
10006;BME280;5042;42.626;23.382;2024-03-29T11:59:55;154901.94;;;22.92;35.01
10006;BME280;5042;42.626;23.382;2024-03-29T12:02:24;154848.31;;;22.71;35.63
10006;BME280;5042;42.626;23.382;2024-03-29T12:04:51;154843.09;;;22.69;35.03
10006;BME280;5042;42.626;23.382;2024-03-29T12:07:18;154929.44;;;23.03;35.16
10006;BME280;5042;42.626;23.382;2024-03-29T12:09:45;154882.28;;;22.84;34.88
10006;BME280;5042;42.626;23.382;2024-03-29T12:12:13;154862.69;;;22.77;34.89
10006;BME280;5042;42.626;23.382;2024-03-29T12:14:43;154796.00;;;22.51;35.83
10006;BME280;5042;42.626;23.382;2024-03-29T12:17:10;154789.47;;;22.48;36.38
10006;BME280;5042;42.626;23.382;2024-03-29T12:19:38;154814.31;;;22.58;36.20
10006;BME280;5042;42.626;23.382;2024-03-29T12:22:07;154822.13;;;22.61;35.32
10006;BME280;5042;42.626;23.382;2024-03-29T12:24:35;154649.50;;;21.93;37.43
10006;BME280;5042;42.626;23.382;2024-03-29T12:27:02;154864.00;;;22.77;35.71
10006;BME280;5042;42.626;23.382;2024-03-29T12:29:29;154826.06;;;22.62;35.81
10006;BME280;5042;42.626;23.382;2024-03-29T12:31:58;154824.78;;;22.62;35.40
10006;BME280;5042;42.626;23.382;2024-03-29T12:34:24;154894.06;;;22.89;38.73
10006;BME280;5042;42.626;23.382;2024-03-29T12:36:53;154981.78;;;23.23;36.54
10006;BME280;5042;42.626;23.382;2024-03-29T12:39:20;154968.72;;;23.18;35.63
10006;BME280;5042;42.626;23.382;2024-03-29T12:41:48;154977.84;;;23.22;37.47
10006;BME280;5042;42.626;23.382;2024-03-29T12:44:14;154987.03;;;23.25;37.01
10006;BME280;5042;42.626;23.382;2024-03-29T12:46:42;155009.25;;;23.34;36.84
10006;BME280;5042;42.626;23.382;2024-03-29T12:49:10;155081.22;;;23.62;35.99
10006;BME280;5042;42.626;23.382;2024-03-29T12:51:40;154993.56;;;23.28;36.54